• Join FlightAware (Why Join?)
  • Login
  • US Flag 
02:04PM EST


 

Airport Tracker/Info


-or-


 

Live Flight TrackerFlight Track Log ✈ EJA982 ✈ 05-May-2013 ✈ KPDK - KSAV

Flight Track Log - Related Links

Times and Time Zones

All times are in EDT time to prevent confusion due to time zone crossing. See the EJA982 flight status page for this flight to view local times or setup timezone preferences in your user account.

Time Position Orientation Groundspeed Altitude Reporting Facility
EDT Latitude Longitude Course Direction KTS MPH feet Rate Location/Type
04:17PM 33.8500 -84.2000 73° East 234 269 5,000  Level Atlanta TRACON
04:19PM 33.8528 -84.0814 88° East 259 298 5,000 118 Level Atlanta Center
04:20PM 33.8547 -83.9989 88° East 252 290 5,300 1,000 Climbing Atlanta Center
04:21PM 33.8400 -83.9189 102° East 247 284 7,000 900 Climbing Atlanta Center
04:22PM 33.8211 -83.8364 105° East 247 284 7,100 1,550 Climbing Atlanta Center
04:23PM 33.7669 -83.7714 135° Southeast 259 298 10,100 3,150 Climbing Atlanta Center
04:24PM 33.7144 -83.6892 127° Southeast 296 341 13,400 3,050 Climbing Atlanta Center
04:25PM 33.6703 -83.5794 116° Southeast 324 373 16,200 1,800 Climbing Atlanta Center
04:26PM 33.6758 -83.4397 87° East 349 402 17,000 400 Climbing Atlanta Center
04:27PM 33.6814 -83.2875 87° East 393 452 17,000  Level Atlanta Center
04:28PM 33.6867 -83.1350 88° East 437 503 17,000  Level Atlanta Center
04:29PM 33.6811 -82.9878 93° East 443 510 17,000  Level Atlanta Center
04:30PM 33.6156 -82.8764 125° Southeast 397 457 17,000  Level Atlanta Center
04:31PM 33.5289 -82.7778 137° Southeast 413 475 17,000  Level Atlanta Center
04:32PM 33.4403 -82.6797 137° Southeast 425 489 17,000  Level Atlanta Center
04:33PM 33.3619 -82.5789 133° Southeast 419 482 17,000  Level Atlanta Center
04:35PM 33.1861 -82.3808 137° Southeast 426 490 17,000  Level Atlanta Center
04:37PM 33.0142 -82.1817 136° Southeast 428 493 17,000  Level Jacksonville Center
04:39PM 32.8375 -81.9778 136° Southeast 433 498 17,000 -333 Level Jacksonville Center
04:40PM 32.7533 -81.8847 137° Southeast 427 491 16,000 -1,600 Descending Jacksonville Center
04:41PM 32.6711 -81.7919 136° Southeast 420 483 13,800 -2,300 Descending Jacksonville Center
04:42PM 32.5825 -81.6919 136° Southeast 411 473 11,400 -1,400 Descending Jacksonville Center
04:43PM 32.5003 -81.6019 137° Southeast 402 463 11,000 -200 Descending Jacksonville Center
04:44PM 32.4306 -81.5217 136° Southeast 392 451 11,000 -350 Level Jacksonville Center
04:45PM 32.3628 -81.4342 133° Southeast 326 375 10,300 -1,000 Descending Jacksonville Center
04:46PM 32.3367 -81.3508 110° East 277 319 9,000 -850 Descending Jacksonville Center
04:47PM 32.3128 -81.2653 108° East 270 311 8,600 -1,350 Descending Jacksonville Center
04:48PM 32.2844 -81.1772 111° Southeast 281 323 6,300 -2,250 Descending Jacksonville Center
04:49PM 32.2603 -81.0992 110° East 286 329 4,100 -2,050 Descending Jacksonville Center
04:50PM 32.2117 -81.0486 139° Southeast 237 273 2,200 -1,050 Descending Jacksonville Center
04:51PM 32.1408 -81.0572 186° South 228 262 2,000 -200 Descending Jacksonville Center
04:53PM 32.1167 -81.2000 220° Southwest  Level FlightAware Approximate
05:00PM 32.1276 -81.2021 220° Southwest  Level Estimated
05:01PM 32.1276 -81.2021 220° Southwest  Level Estimated
05:02PM 32.1276 -81.2021 220° Southwest  Level Estimated
05:03PM 32.1276 -81.2021 220° Southwest  Level Estimated